Time;durP1;ratioP1;P1;durP2;ratioP2;P2;SDS_P1;SDS_P2;PMS_P1;PMS_P2;Temp;Humidity;BMP_temperature;BMP_pressure;BME280_temperature;BME280_humidity;BME280_pressure;Samples;Min_cycle;Max_cycle;Signal;HPM_P1;HPM_P2
2023/03/23 00:01:24;;;;;;;7.32;2.30;;;11.70;1.00;;;;;;6226406;23;20062;-89
2023/03/23 00:04:13;;;;;;;3.72;2.22;;;11.70;1.00;;;;;;6227111;23;20093;-88
2023/03/23 00:07:02;;;;;;;7.32;2.35;;;11.70;1.00;;;;;;6226428;23;20030;-85
2023/03/23 00:09:55;;;;;;;5.55;2.90;;;11.70;1.00;;;;;;6224755;23;20065;-88
2023/03/23 00:12:44;;;;;;;6.90;2.92;;;11.70;1.00;;;;;;6244839;23;20019;-89
2023/03/23 00:15:33;;;;;;;7.20;3.40;;;11.70;1.00;;;;;;6227706;23;20099;-87
2023/03/23 00:18:25;;;;;;;6.18;2.88;;;11.70;1.00;;;;;;6248766;23;20709;-88
2023/03/23 00:21:11;;;;;;;;;;;11.60;1.00;;;;;;6226677;23;20016;-87
2023/03/23 00:23:59;;;;;;;5.78;2.58;;;11.60;1.00;;;;;;6224641;23;19933;-86
2023/03/23 00:26:49;;;;;;;4.88;2.38;;;11.60;1.00;;;;;;6204590;23;20027;-88
2023/03/23 00:29:35;;;;;;;2.15;1.80;;;11.50;1.00;;;;;;6225424;23;20133;-88
2023/03/23 00:32:27;;;;;;;2.90;1.60;;;11.50;1.00;;;;;;6223370;23;20019;-87
2023/03/23 00:35:13;;;;;;;3.35;2.00;;;11.40;1.00;;;;;;6225722;23;20084;-89
2023/03/23 00:38:01;;;;;;;2.60;1.90;;;11.40;1.00;;;;;;6226140;23;20467;-89
2023/03/23 00:40:49;;;;;;;6.15;1.83;;;11.40;1.00;;;;;;6226403;23;20021;-89
2023/03/23 00:43:38;;;;;;;3.85;1.98;;;11.30;1.00;;;;;;6203471;23;20118;-88
2023/03/23 00:46:25;;;;;;;4.05;2.10;;;11.30;1.00;;;;;;6203892;23;20047;-88
2023/03/23 00:49:12;;;;;;;3.65;2.00;;;11.30;1.00;;;;;;6226038;23;20374;-88
2023/03/23 00:51:58;;;;;;;5.35;2.00;;;11.30;1.00;;;;;;6203328;23;20028;-88
2023/03/23 00:54:47;;;;;;;4.03;2.00;;;11.30;1.00;;;;;;6222304;23;20031;-88
2023/03/23 00:57:33;;;;;;;5.80;1.98;;;11.30;1.00;;;;;;6225373;23;20085;-86
2023/03/23 01:00:22;;;;;;;4.43;2.03;;;11.30;1.00;;;;;;6225605;23;20032;-86
2023/03/23 01:03:17;;;;;;;3.42;2.00;;;11.40;1.00;;;;;;6221350;23;20055;-87
2023/03/23 01:06:12;;;;;;;3.53;2.13;;;11.30;1.00;;;;;;6224225;23;20024;-85
2023/03/23 01:08:58;;;;;;;2.42;1.80;;;11.40;1.00;;;;;;6224990;23;20154;-88
2023/03/23 01:11:45;;;;;;;3.40;2.30;;;11.30;1.00;;;;;;6224887;23;20052;-85
2023/03/23 01:14:32;;;;;;;5.03;1.95;;;11.40;1.00;;;;;;6246784;23;20381;-86
2023/03/23 01:17:18;;;;;;;4.53;1.80;;;11.40;1.00;;;;;;6245905;23;20020;-86
2023/03/23 01:20:06;;;;;;;3.17;2.22;;;11.40;1.00;;;;;;6222454;23;20031;-86
2023/03/23 01:22:59;;;;;;;4.07;2.33;;;11.40;1.00;;;;;;6223222;23;20028;-84
2023/03/23 01:25:46;;;;;;;3.38;2.10;;;11.40;1.00;;;;;;6245500;23;20035;-85
2023/03/23 01:28:32;;;;;;;8.75;2.17;;;11.40;1.00;;;;;;6224931;23;20028;-86
2023/03/23 01:31:28;;;;;;;4.15;1.80;;;11.50;1.00;;;;;;6246382;23;20060;-86
2023/03/23 01:34:14;;;;;;;3.60;1.70;;;11.50;1.00;;;;;;6223730;23;20020;-86
2023/03/23 01:37:02;;;;;;;3.40;1.60;;;11.50;1.00;;;;;;6225294;23;20099;-84
2023/03/23 01:39:49;;;;;;;2.80;2.00;;;11.50;1.00;;;;;;6205540;23;20027;-87
2023/03/23 01:42:37;;;;;;;2.67;2.08;;;11.50;1.00;;;;;;6223310;23;20034;-86
2023/03/23 01:45:28;;;;;;;2.15;1.73;;;11.60;1.00;;;;;;6223075;23;20527;-86
2023/03/23 01:48:46;;;;;;;3.03;1.77;;;11.50;1.00;;;;;;6222803;23;20095;-86
2023/03/23 01:51:35;;;;;;;2.63;1.83;;;11.50;1.00;;;;;;6174474;23;20027;-87
2023/03/23 01:54:26;;;;;;;2.67;2.13;;;11.50;1.00;;;;;;6222353;23;20020;-85
2023/03/23 01:57:21;;;;;;;4.88;1.60;;;11.60;1.00;;;;;;6203755;23;20327;-86
2023/03/23 02:00:14;;;;;;;2.13;1.63;;;11.60;1.00;;;;;;6224207;23;20119;-85
2023/03/23 02:03:01;;;;;;;2.33;1.50;;;11.80;1.00;;;;;;6224380;23;20028;-86
2023/03/23 02:05:47;;;;;;;4.28;2.05;;;11.80;1.00;;;;;;6222476;23;20020;-87
2023/03/23 02:08:35;;;;;;;3.30;1.70;;;11.90;1.00;;;;;;6223278;23;20024;-87
2023/03/23 02:11:22;;;;;;;3.55;1.85;;;11.90;1.00;;;;;;6223764;23;20727;-84
2023/03/23 02:14:11;;;;;;;2.33;1.80;;;11.90;1.00;;;;;;6225372;23;20047;-87
2023/03/23 02:17:06;;;;;;;3.08;1.67;;;11.90;1.00;;;;;;6224862;23;20087;-86
2023/03/23 02:19:55;;;;;;;3.20;1.80;;;11.90;1.00;;;;;;6221977;23;20017;-85
2023/03/23 02:22:58;;;;;;;2.25;1.60;;;11.90;1.00;;;;;;6224293;23;20024;-85
2023/03/23 02:26:00;;;;;;;2.55;1.70;;;11.90;1.00;;;;;;6223129;23;20095;-85
2023/03/23 02:29:03;;;;;;;3.70;1.90;;;12.00;1.00;;;;;;6223789;23;20036;-86
2023/03/23 02:31:52;;;;;;;3.60;1.83;;;12.00;1.00;;;;;;6223630;23;20062;-87
2023/03/23 02:34:53;;;;;;;2.55;1.77;;;11.90;1.00;;;;;;6222496;23;20020;-85
2023/03/23 02:37:54;;;;;;;1.63;1.50;;;11.90;1.00;;;;;;6201940;23;20272;-88
2023/03/23 02:40:45;;;;;;;2.05;1.80;;;11.90;1.00;;;;;;6223244;23;20020;-86
2023/03/23 02:43:40;;;;;;;4.57;1.90;;;12.00;1.00;;;;;;6246693;23;20038;-85
2023/03/23 02:46:28;;;;;;;2.83;1.90;;;12.10;1.00;;;;;;6225522;23;20125;-85
2023/03/23 02:49:19;;;;;;;1.98;1.55;;;12.10;1.00;;;;;;6224086;23;20030;-87
2023/03/23 02:52:12;;;;;;;2.80;1.60;;;12.20;1.00;;;;;;6224211;23;20296;-86
2023/03/23 02:54:59;;;;;;;;;;;12.20;1.00;;;;;;6223768;23;20016;-85
2023/03/23 02:57:46;;;;;;;3.58;1.73;;;12.20;1.00;;;;;;6224886;23;19947;-85
2023/03/23 03:00:32;;;;;;;2.95;1.60;;;12.10;1.00;;;;;;6226294;23;20085;-86
2023/03/23 03:03:21;;;;;;;3.92;1.67;;;12.10;1.00;;;;;;6226752;23;20027;-85
2023/03/23 03:06:31;;;;;;;2.95;1.52;;;12.20;1.00;;;;;;6226578;23;20058;-85
2023/03/23 03:09:41;;;;;;;3.05;1.60;;;12.20;1.00;;;;;;6226663;23;20051;-86
2023/03/23 03:12:31;;;;;;;1.85;1.42;;;12.10;1.00;;;;;;6226367;23;20135;-86
2023/03/23 03:15:41;;;;;;;3.58;1.50;;;12.20;1.00;;;;;;6226458;23;20073;-88
2023/03/23 03:18:34;;;;;;;2.78;2.25;;;12.20;1.00;;;;;;6224913;23;20324;-83
2023/03/23 03:21:30;;;;;;;5.55;1.88;;;12.10;1.00;;;;;;6203139;23;20103;-87
2023/03/23 03:24:19;;;;;;;2.55;1.90;;;12.10;1.00;;;;;;6224410;23;20024;-85
2023/03/23 03:27:14;;;;;;;3.40;1.90;;;12.10;1.00;;;;;;6225426;23;20027;-85
2023/03/23 03:30:04;;;;;;;2.80;1.70;;;12.00;1.00;;;;;;6224633;23;20020;-85
2023/03/23 03:32:53;;;;;;;2.55;2.00;;;12.00;1.00;;;;;;6223534;23;20065;-86
2023/03/23 03:35:44;;;;;;;4.70;1.90;;;12.10;1.00;;;;;;6222960;23;20431;-87
2023/03/23 03:38:43;;;;;;;1.90;1.42;;;12.10;1.00;;;;;;6225755;23;20024;-86
2023/03/23 03:41:32;;;;;;;2.55;1.58;;;12.10;1.00;;;;;;6244670;23;20056;-85
2023/03/23 03:44:18;;;;;;;4.45;1.88;;;12.10;1.00;;;;;;6225758;23;20019;-86
2023/03/23 03:47:04;;;;;;;4.35;1.70;;;12.20;1.00;;;;;;6225104;23;20020;-86
2023/03/23 03:49:50;;;;;;;6.05;1.75;;;12.30;1.00;;;;;;6245958;23;20396;-86
2023/03/23 03:52:38;;;;;;;2.33;1.70;;;12.40;1.00;;;;;;6224127;23;20024;-84
2023/03/23 03:55:24;;;;;;;2.28;1.60;;;12.30;1.00;;;;;;6245725;23;20020;-87
2023/03/23 03:58:10;;;;;;;3.10;1.63;;;12.40;1.00;;;;;;6226341;23;20427;-86
2023/03/23 04:00:56;;;;;;;3.83;1.67;;;12.40;1.00;;;;;;6224038;23;20335;-86
2023/03/23 04:03:43;;;;;;;4.00;1.75;;;12.40;1.00;;;;;;6223521;23;20442;-86
2023/03/23 04:06:29;;;;;;;2.80;1.48;;;12.30;1.00;;;;;;6203992;23;20016;-85
2023/03/23 04:09:15;;;;;;;1.67;1.45;;;12.30;1.00;;;;;;6202241;23;20020;-85
2023/03/23 04:12:01;;;;;;;2.80;1.80;;;12.30;1.00;;;;;;6224874;23;20689;-87
2023/03/23 04:14:50;;;;;;;2.42;1.60;;;12.30;1.00;;;;;;6224182;23;20016;-86
2023/03/23 04:17:36;;;;;;;2.08;1.50;;;12.30;1.00;;;;;;6224544;23;20023;-88
2023/03/23 04:20:22;;;;;;;3.08;1.50;;;12.30;1.00;;;;;;6222674;23;20079;-86
2023/03/23 04:23:08;;;;;;;2.40;1.55;;;12.30;1.00;;;;;;6223753;23;20028;-86
2023/03/23 04:25:57;;;;;;;2.83;1.40;;;12.40;1.00;;;;;;6225714;23;20407;-85
2023/03/23 04:28:45;;;;;;;1.95;1.60;;;12.40;1.00;;;;;;6245338;23;20056;-86
2023/03/23 04:31:31;;;;;;;4.43;1.80;;;12.40;1.00;;;;;;6224973;23;20020;-87
2023/03/23 04:34:18;;;;;;;2.25;1.40;;;12.40;1.00;;;;;;6224241;23;20024;-86
2023/03/23 04:37:04;;;;;;;2.53;1.52;;;12.30;1.00;;;;;;6224374;23;20020;-85
2023/03/23 04:39:59;;;;;;;2.08;1.50;;;12.30;1.00;;;;;;6222834;23;20024;-86
2023/03/23 04:42:51;;;;;;;3.05;1.60;;;12.30;1.00;;;;;;6244654;23;20400;-87
2023/03/23 04:45:41;;;;;;;3.10;1.40;;;12.20;1.00;;;;;;6223690;23;20031;-86
2023/03/23 04:48:33;;;;;;;2.20;1.65;;;12.10;1.00;;;;;;6224765;23;20035;-84
2023/03/23 04:51:19;;;;;;;3.53;1.95;;;12.10;1.00;;;;;;6224004;23;20095;-84
2023/03/23 04:54:05;;;;;;;1.90;1.50;;;12.10;1.00;;;;;;6222944;23;20052;-85
2023/03/23 04:56:51;;;;;;;3.88;1.63;;;12.10;1.00;;;;;;6204603;23;20433;-87
2023/03/23 04:59:40;;;;;;;4.35;1.40;;;12.10;1.00;;;;;;6222918;23;20374;-85
2023/03/23 05:02:30;;;;;;;2.35;1.67;;;12.10;1.00;;;;;;6223698;23;20055;-86
2023/03/23 05:05:19;;;;;;;2.50;1.75;;;12.10;1.00;;;;;;6203434;23;20042;-84
2023/03/23 05:08:05;;;;;;;4.28;2.05;;;12.20;1.00;;;;;;6224700;23;20364;-85
2023/03/23 05:10:56;;;;;;;3.50;1.88;;;12.10;1.00;;;;;;6223684;23;20058;-86
2023/03/23 05:13:44;;;;;;;2.88;1.50;;;12.10;1.00;;;;;;6243716;23;20370;-87
2023/03/23 05:16:32;;;;;;;2.30;1.67;;;12.10;1.00;;;;;;6243947;23;20085;-86
2023/03/23 05:19:18;;;;;;;3.45;1.92;;;12.00;1.00;;;;;;6225202;23;20016;-87
2023/03/23 05:22:04;;;;;;;2.65;1.75;;;12.10;1.00;;;;;;6223651;23;20327;-85
2023/03/23 05:24:53;;;;;;;2.05;1.58;;;12.10;1.00;;;;;;6225825;23;20023;-87
2023/03/23 05:27:43;;;;;;;3.50;1.90;;;12.20;1.00;;;;;;6223534;23;20027;-89
2023/03/23 05:30:29;;;;;;;3.88;1.73;;;12.20;1.00;;;;;;6224564;23;20027;-87
2023/03/23 05:33:15;;;;;;;2.55;1.88;;;12.40;1.00;;;;;;6225283;23;20446;-88
2023/03/23 05:36:04;;;;;;;2.90;1.60;;;12.40;1.00;;;;;;6226126;23;20563;-87
2023/03/23 05:38:53;;;;;;;2.35;1.80;;;12.40;1.00;;;;;;6226582;23;20024;-87
2023/03/23 05:41:39;;;;;;;2.63;1.60;;;12.60;1.00;;;;;;6227241;23;20026;-86
2023/03/23 05:44:26;;;;;;;3.42;2.10;;;12.60;1.00;;;;;;6243885;23;20095;-87
2023/03/23 05:47:13;;;;;;;2.38;1.60;;;12.70;1.00;;;;;;6226989;23;20054;-89
2023/03/23 05:50:00;;;;;;;2.80;1.75;;;12.60;1.00;;;;;;6222303;23;20016;-87
2023/03/23 05:52:46;;;;;;;1.70;1.60;;;12.60;1.00;;;;;;6202528;23;20462;-88
2023/03/23 05:55:34;;;;;;;2.90;1.58;;;12.70;1.00;;;;;;6222650;23;20039;-87
2023/03/23 05:58:21;;;;;;;1.42;1.30;;;12.70;1.00;;;;;;6245421;23;20020;-87
2023/03/23 06:01:08;;;;;;;1.40;1.30;;;12.80;1.00;;;;;;6222952;23;20027;-88
2023/03/23 06:03:58;;;;;;;3.72;1.80;;;12.80;1.00;;;;;;6225604;23;20020;-87
2023/03/23 06:06:45;;;;;;;1.70;1.50;;;12.80;1.00;;;;;;6224029;23;20063;-86
2023/03/23 06:09:31;;;;;;;4.40;1.48;;;12.80;1.00;;;;;;6244219;23;20031;-88
2023/03/23 06:12:20;;;;;;;2.40;1.80;;;12.80;1.00;;;;;;6224865;23;20370;-85
2023/03/23 06:15:08;;;;;;;2.95;1.83;;;12.80;1.00;;;;;;6235636;23;20074;-87
2023/03/23 06:17:56;;;;;;;3.08;1.73;;;12.80;1.00;;;;;;6236447;23;20016;-86
2023/03/23 06:20:43;;;;;;;2.00;1.55;;;12.80;1.00;;;;;;6224626;23;20050;-86
2023/03/23 06:23:30;;;;;;;2.78;1.90;;;12.80;1.00;;;;;;6251645;23;20024;-85
2023/03/23 06:26:20;;;;;;;5.40;2.03;;;12.80;1.00;;;;;;6259156;23;20024;-86
2023/03/23 06:29:11;;;;;;;3.92;2.00;;;12.90;1.00;;;;;;6236011;23;20502;-86
2023/03/23 06:32:02;;;;;;;3.85;1.80;;;12.80;1.00;;;;;;6239544;23;20066;-86
2023/03/23 06:34:51;;;;;;;2.72;1.70;;;12.80;1.00;;;;;;6238055;23;20062;-84
2023/03/23 06:37:40;;;;;;;4.15;1.60;;;12.80;1.00;;;;;;6239440;23;20097;-85
2023/03/23 06:40:28;;;;;;;2.50;1.70;;;12.70;1.00;;;;;;6230041;23;20016;-86
2023/03/23 06:43:14;;;;;;;2.25;1.60;;;12.70;1.00;;;;;;6230890;23;20024;-85
2023/03/23 06:46:01;;;;;;;2.08;1.60;;;12.80;1.00;;;;;;6229696;23;20024;-85
2023/03/23 06:48:49;;;;;;;2.45;1.52;;;12.80;1.00;;;;;;6246265;23;20016;-86
2023/03/23 06:51:36;;;;;;;6.85;1.98;;;12.80;1.00;;;;;;6226471;23;20327;-86
2023/03/23 06:54:23;;;;;;;3.88;2.00;;;12.90;1.00;;;;;;6224766;23;20012;-84
2023/03/23 06:57:10;;;;;;;3.20;1.80;;;12.90;1.00;;;;;;6226485;23;20020;-85
2023/03/23 06:59:56;;;;;;;3.25;1.83;;;13.00;1.00;;;;;;6246855;23;20016;-86
2023/03/23 07:02:44;;;;;;;2.35;1.80;;;13.00;1.00;;;;;;6246677;23;20031;-84
2023/03/23 07:05:30;;;;;;;2.58;1.80;;;13.00;1.00;;;;;;6222721;23;20031;-86
2023/03/23 07:08:16;;;;;;;3.53;1.88;;;13.10;1.00;;;;;;6225630;23;20027;-86
2023/03/23 07:11:06;;;;;;;3.17;1.95;;;13.10;1.00;;;;;;6230646;23;20383;-85
2023/03/23 07:13:52;;;;;;;6.03;2.03;;;13.10;1.00;;;;;;6212174;23;20021;-88
2023/03/23 07:16:38;;;;;;;2.78;1.83;;;13.10;1.00;;;;;;6233368;23;20046;-85
2023/03/23 07:19:24;;;;;;;6.30;1.95;;;13.20;1.00;;;;;;6233526;23;20032;-83
2023/03/23 07:22:10;;;;;;;2.13;1.60;;;13.10;1.00;;;;;;6235486;23;20105;-84
2023/03/23 07:24:56;;;;;;;3.33;2.20;;;13.10;1.00;;;;;;6231851;23;20098;-86
2023/03/23 07:27:45;;;;;;;5.20;2.33;;;13.10;1.00;;;;;;6235154;23;20020;-85
2023/03/23 07:30:31;;;;;;;4.07;2.00;;;13.00;1.00;;;;;;6235372;23;20048;-85
2023/03/23 07:33:18;;;;;;;4.28;2.15;;;13.00;1.00;;;;;;6234955;23;20024;-86
2023/03/23 07:36:06;;;;;;;8.50;2.40;;;13.00;1.00;;;;;;6234766;23;20020;-86
2023/03/23 07:38:52;;;;;;;7.80;1.85;;;12.90;1.00;;;;;;6259709;23;20016;-85
2023/03/23 07:41:39;;;;;;;6.47;2.22;;;12.90;1.00;;;;;;6238525;23;20024;-83
2023/03/23 07:44:25;;;;;;;8.05;2.33;;;12.90;1.00;;;;;;6244896;23;20044;-85
2023/03/23 07:47:14;;;;;;;7.10;2.40;;;13.00;2.80;;;;;;6244333;23;20015;-84
2023/03/23 07:50:01;;;;;;;4.20;2.22;;;13.10;1.00;;;;;;6234755;23;20035;-85
2023/03/23 07:52:57;;;;;;;4.38;2.10;;;13.20;1.00;;;;;;6231480;23;20031;-85
2023/03/23 07:55:45;;;;;;;3.03;2.20;;;13.30;1.00;;;;;;6237873;23;20040;-84
2023/03/23 07:58:31;;;;;;;4.97;2.28;;;13.40;1.00;;;;;;6236534;23;20031;-84
2023/03/23 08:01:18;;;;;;;2.50;2.22;;;13.50;1.00;;;;;;6243021;23;20043;-84
2023/03/23 08:04:08;;;;;;;3.95;2.35;;;13.60;1.00;;;;;;6240943;23;20030;-85
2023/03/23 08:06:56;;;;;;;5.18;1.90;;;13.70;1.00;;;;;;6242420;23;20026;-83
2023/03/23 08:09:43;;;;;;;4.50;2.10;;;13.70;1.00;;;;;;6241795;23;20016;-84
2023/03/23 08:12:29;;;;;;;11.48;4.63;;;13.70;1.00;;;;;;6223148;23;20301;-85
2023/03/23 08:15:16;;;;;;;3.83;2.78;;;13.70;1.00;;;;;;6238880;23;20051;-86
2023/03/23 08:18:09;;;;;;;5.18;3.10;;;13.80;1.00;;;;;;6208966;23;20017;-85
2023/03/23 08:20:56;;;;;;;3.53;1.98;;;13.90;1.00;;;;;;6250614;23;20016;-85
2023/03/23 08:23:42;;;;;;;4.20;2.30;;;14.10;1.00;;;;;;6215182;23;20024;-86
2023/03/23 08:26:31;;;;;;;5.85;2.20;;;14.30;1.00;;;;;;6233270;23;20027;-87
2023/03/23 08:29:17;;;;;;;3.78;2.00;;;14.30;1.00;;;;;;6252945;23;20297;-86
2023/03/23 08:32:39;;;;;;;3.53;1.85;;;14.20;1.00;;;;;;6226440;23;20020;-86
2023/03/23 08:35:26;;;;;;;4.90;2.22;;;14.20;3.50;;;;;;6224244;23;20309;-86
2023/03/23 08:38:13;;;;;;;2.17;1.95;;;14.20;8.00;;;;;;6225748;23;20059;-85
2023/03/23 08:41:03;;;;;;;5.90;2.05;;;14.00;9.50;;;;;;6225880;23;20039;-83
2023/03/23 08:43:50;;;;;;;5.28;1.80;;;13.90;14.20;;;;;;6225276;23;20028;-89
2023/03/23 08:46:39;;;;;;;2.92;2.20;;;13.90;16.70;;;;;;6203948;23;20082;-85
2023/03/23 08:49:27;;;;;;;4.65;2.10;;;13.90;19.70;;;;;;6248010;23;20054;-86
2023/03/23 08:52:15;;;;;;;3.58;1.70;;;13.90;22.50;;;;;;6226630;23;20157;-86
2023/03/23 08:55:03;;;;;;;3.85;1.85;;;14.10;26.90;;;;;;6247082;23;20016;-88
2023/03/23 08:57:52;;;;;;;4.05;2.08;;;14.10;28.70;;;;;;6225174;23;20016;-87
2023/03/23 09:00:39;;;;;;;2.90;1.63;;;14.00;28.60;;;;;;6205617;23;20016;-87
2023/03/23 09:03:25;;;;;;;4.15;1.90;;;14.10;33.10;;;;;;6224261;23;20039;-85
2023/03/23 09:06:12;;;;;;;1.58;1.48;;;14.20;32.60;;;;;;6226665;23;20109;-86
2023/03/23 09:09:05;;;;;;;2.83;1.80;;;14.30;31.40;;;;;;6204979;23;20055;-87
2023/03/23 09:11:53;;;;;;;2.35;1.52;;;14.30;31.60;;;;;;6225010;23;20039;-86
2023/03/23 09:14:39;;;;;;;4.78;2.05;;;14.40;33.70;;;;;;6224121;23;20020;-86
2023/03/23 09:17:25;;;;;;;2.35;1.73;;;14.40;34.30;;;;;;6204100;23;20020;-86
2023/03/23 09:20:16;;;;;;;2.05;1.85;;;14.40;32.70;;;;;;6225753;23;20449;-85
2023/03/23 09:23:03;;;;;;;2.40;1.77;;;14.50;37.60;;;;;;6224332;23;20361;-86
2023/03/23 09:25:50;;;;;;;3.20;2.00;;;14.50;35.10;;;;;;6225496;23;20360;-86
2023/03/23 09:28:37;;;;;;;3.90;1.98;;;14.50;31.60;;;;;;6247226;23;20091;-86
2023/03/23 09:31:26;;;;;;;6.10;1.83;;;14.50;35.40;;;;;;6225092;23;20020;-85
2023/03/23 09:34:15;;;;;;;3.17;1.98;;;14.50;37.50;;;;;;6245666;23;20411;-88
2023/03/23 09:37:04;;;;;;;2.80;1.83;;;14.50;34.70;;;;;;6244355;23;20020;-85
2023/03/23 09:39:50;;;;;;;2.67;1.90;;;14.20;40.40;;;;;;6225110;23;20066;-86
2023/03/23 09:42:51;;;;;;;5.82;1.88;;;14.10;47.90;;;;;;6223250;23;20035;-85
2023/03/23 09:46:26;;;;;;;3.35;2.15;;;14.10;63.00;;;;;;6223880;23;20078;-86
2023/03/23 09:49:35;;;;;;;5.03;2.20;;;14.10;69.00;;;;;;6103324;23;20133;-86
2023/03/23 09:52:23;;;;;;;2.65;1.88;;;14.20;78.10;;;;;;6103883;23;20030;-88
2023/03/23 09:55:18;;;;;;;9.32;2.20;;;14.40;79.00;;;;;;6227893;22;20091;-87
2023/03/23 09:58:28;;;;;;;4.10;1.83;;;14.50;69.00;;;;;;6245357;23;20400;-85
2023/03/23 10:01:26;;;;;;;3.03;1.70;;;14.80;58.10;;;;;;6223974;23;20118;-84
2023/03/23 10:04:51;;;;;;;3.78;1.90;;;14.80;49.30;;;;;;6225353;23;20031;-84
2023/03/23 10:07:38;;;;;;;4.45;2.10;;;15.20;45.70;;;;;;6202709;23;20048;-87
2023/03/23 10:10:43;;;;;;;3.08;1.70;;;15.60;31.80;;;;;;6245440;23;20016;-85
2023/03/23 10:13:40;;;;;;;6.20;2.20;;;15.50;24.40;;;;;;6242294;23;20086;-82
2023/03/23 10:16:33;;;;;;;2.63;1.88;;;15.60;27.70;;;;;;6221941;23;20023;-83
2023/03/23 10:19:51;;;;;;;3.75;2.00;;;15.50;20.70;;;;;;6221936;23;20095;-84
2023/03/23 10:22:45;;;;;;;2.67;1.85;;;15.40;21.60;;;;;;6243124;23;20031;-82
2023/03/23 10:25:36;;;;;;;5.38;2.10;;;15.40;19.90;;;;;;6244741;23;20027;-85
2023/03/23 10:28:44;;;;;;;2.92;2.03;;;15.20;20.80;;;;;;6223337;23;20016;-85
2023/03/23 10:31:37;;;;;;;2.33;1.88;;;15.00;22.20;;;;;;6226817;23;20024;-85
2023/03/23 10:34:23;;;;;;;;;;;15.20;24.50;;;;;;6223287;23;20401;-85
2023/03/23 10:37:21;;;;;;;3.47;2.15;;;15.10;24.20;;;;;;6224610;23;19979;-84
2023/03/23 10:40:19;;;;;;;4.63;2.28;;;15.00;27.60;;;;;;6221058;23;20051;-87
2023/03/23 10:43:07;;;;;;;3.47;2.10;;;15.10;28.40;;;;;;6221691;23;20035;-88
2023/03/23 10:46:01;;;;;;;2.50;2.05;;;15.00;26.90;;;;;;6202878;23;20020;-88
2023/03/23 10:48:56;;;;;;;2.95;1.83;;;14.90;26.90;;;;;;6204123;23;20141;-87
2023/03/23 10:51:49;;;;;;;3.75;2.00;;;15.10;28.10;;;;;;6225402;23;20447;-87
2023/03/23 10:54:39;;;;;;;3.83;2.17;;;15.50;26.70;;;;;;6202652;23;20020;-85
2023/03/23 10:57:29;;;;;;;4.10;2.42;;;15.60;19.00;;;;;;6245166;23;20023;-84
2023/03/23 11:00:27;;;;;;;2.88;2.25;;;15.40;20.40;;;;;;6245436;23;20344;-86
2023/03/23 11:03:14;;;;;;;4.95;2.30;;;15.60;19.40;;;;;;6225838;23;20095;-86
2023/03/23 11:06:03;;;;;;;2.08;1.88;;;15.70;18.00;;;;;;6207138;23;20051;-85
2023/03/23 11:09:01;;;;;;;3.00;2.30;;;15.70;18.90;;;;;;6207383;23;20024;-85
2023/03/23 11:11:55;;;;;;;2.97;2.08;;;15.30;15.10;;;;;;6206920;23;20423;-87
2023/03/23 11:14:42;;;;;;;3.17;2.25;;;15.40;23.40;;;;;;6223706;23;20050;-88
2023/03/23 11:17:28;;;;;;;3.92;2.38;;;15.30;25.00;;;;;;6230045;23;20073;-88
2023/03/23 11:20:20;;;;;;;4.05;2.83;;;15.30;34.10;;;;;;6205964;23;20024;-87
2023/03/23 11:23:20;;;;;;;2.90;2.20;;;15.50;49.30;;;;;;6204558;23;20028;-87
2023/03/23 11:26:26;;;;;;;4.88;2.42;;;15.30;61.10;;;;;;6228288;23;20038;-89
2023/03/23 11:29:24;;;;;;;3.75;2.05;;;15.10;63.70;;;;;;6224595;23;20028;-86
2023/03/23 11:32:13;;;;;;;5.10;3.20;;;15.50;62.80;;;;;;6224941;23;20028;-86
2023/03/23 11:35:04;;;;;;;2.35;1.83;;;16.00;55.00;;;;;;6226810;23;20082;-87
2023/03/23 11:37:54;;;;;;;3.05;1.73;;;16.30;33.70;;;;;;6203975;23;20095;-86
2023/03/23 11:40:48;;;;;;;2.90;2.28;;;16.30;22.50;;;;;;6226947;23;20437;-86
2023/03/23 11:43:38;;;;;;;4.60;2.28;;;16.20;15.40;;;;;;6205303;23;20027;-88
2023/03/23 11:46:58;;;;;;;2.75;1.60;;;16.20;12.50;;;;;;6227058;23;20111;-88
2023/03/23 11:50:25;;;;;;;2.78;1.73;;;16.10;11.30;;;;;;6199992;23;20107;-88
2023/03/23 11:53:37;;;;;;;4.13;1.90;;;16.00;8.20;;;;;;6173674;23;20089;-84
2023/03/23 11:56:45;;;;;;;3.40;1.97;;;15.90;6.60;;;;;;6225291;23;20078;-84
2023/03/23 11:59:35;;;;;;;2.92;2.00;;;15.90;4.60;;;;;;6224824;23;20047;-82
2023/03/23 12:02:31;;;;;;;3.55;2.20;;;16.20;3.80;;;;;;6223288;23;20109;-82
2023/03/23 12:05:36;;;;;;;3.53;2.33;;;16.10;1.00;;;;;;6223339;23;20020;-83
2023/03/23 12:08:53;;;;;;;4.25;1.88;;;15.70;1.00;;;;;;6225639;23;20031;-84
2023/03/23 12:12:12;;;;;;;3.35;1.63;;;15.60;1.00;;;;;;6245496;23;20485;-87
2023/03/23 12:15:13;;;;;;;3.70;2.40;;;15.60;1.00;;;;;;6226102;23;20031;-85
2023/03/23 12:18:24;;;;;;;3.58;1.75;;;15.50;1.00;;;;;;6208412;23;20023;-86
2023/03/23 12:21:34;;;;;;;3.97;1.92;;;15.60;1.00;;;;;;6225810;23;20515;-87
2023/03/23 12:25:03;;;;;;;5.35;2.00;;;15.60;1.00;;;;;;6226806;23;20024;-85
2023/03/23 12:28:22;;;;;;;4.35;1.88;;;15.70;1.00;;;;;;6105420;23;20514;-87
2023/03/23 12:31:11;;;;;;;2.72;1.70;;;15.70;1.00;;;;;;6106271;23;20021;-84
2023/03/23 12:34:23;;;;;;;4.30;1.85;;;15.80;1.00;;;;;;6206133;23;20443;-85
2023/03/23 12:37:45;;;;;;;3.05;1.75;;;15.70;1.00;;;;;;6245359;23;20456;-82
2023/03/23 12:41:16;;;;;;;3.05;1.60;;;15.80;1.00;;;;;;6225123;23;20749;-83
2023/03/23 12:44:13;;;;;;;3.30;1.95;;;15.90;1.00;;;;;;6223596;23;20313;-82
2023/03/23 12:47:07;;;;;;;3.33;2.10;;;16.20;1.00;;;;;;6225839;23;20293;-84
2023/03/23 12:50:01;;;;;;;3.20;1.88;;;16.30;1.00;;;;;;6225848;23;20016;-85
2023/03/23 12:52:47;;;;;;;3.45;1.52;;;16.30;1.00;;;;;;6226135;23;20035;-87
2023/03/23 12:55:52;;;;;;;5.13;1.77;;;16.40;1.00;;;;;;6248855;23;20087;-84
2023/03/23 12:58:53;;;;;;;2.83;1.52;;;16.40;1.00;;;;;;6223951;23;20024;-85
2023/03/23 13:01:45;;;;;;;3.75;1.92;;;16.50;1.00;;;;;;6245656;23;20024;-85
2023/03/23 13:04:37;;;;;;;3.78;1.70;;;16.50;1.00;;;;;;6225403;23;20024;-84
2023/03/23 13:07:33;;;;;;;2.58;1.73;;;16.60;1.00;;;;;;6245633;23;20020;-86
2023/03/23 13:10:36;;;;;;;7.30;2.53;;;16.80;1.00;;;;;;6203123;23;20027;-88
2023/03/23 13:13:23;;;;;;;;;;;17.00;1.00;;;;;;6224618;23;20154;-86
2023/03/23 13:16:33;;;;;;;2.90;1.73;;;16.90;1.00;;;;;;6225977;23;19911;-90
2023/03/23 13:19:37;;;;;;;2.75;1.70;;;17.30;1.00;;;;;;6205873;23;20107;-87
2023/03/23 13:22:49;;;;;;;2.22;1.80;;;17.60;1.00;;;;;;6225806;23;20046;-88
2023/03/23 13:25:43;;;;;;;3.78;1.73;;;17.50;1.00;;;;;;6225030;23;20408;-87
2023/03/23 13:28:32;;;;;;;3.75;1.75;;;17.50;1.00;;;;;;6225741;23;20434;-87
2023/03/23 13:31:33;;;;;;;6.70;2.35;;;18.00;1.00;;;;;;6205209;23;20424;-86
2023/03/23 13:34:30;;;;;;;4.82;1.92;;;17.70;1.00;;;;;;6202433;23;20099;-89
2023/03/23 13:37:16;;;;;;;2.65;1.65;;;17.30;1.00;;;;;;6244172;23;20058;-86
2023/03/23 13:40:29;;;;;;;5.00;1.95;;;17.00;1.00;;;;;;6204217;23;20024;-85
2023/03/23 13:43:27;;;;;;;3.22;1.60;;;17.30;1.00;;;;;;6244106;23;20024;-87
2023/03/23 13:46:19;;;;;;;2.55;1.92;;;17.60;1.00;;;;;;6203197;23;20034;-86
2023/03/23 13:49:27;;;;;;;3.08;1.90;;;17.60;1.00;;;;;;6246245;23;20077;-90
2023/03/23 13:52:18;;;;;;;3.63;1.95;;;17.60;1.00;;;;;;6203919;23;20028;-87
2023/03/23 13:55:43;;;;;;;2.85;2.20;;;17.50;1.00;;;;;;6243676;23;20020;-87
2023/03/23 13:58:29;;;;;;;4.20;2.15;;;17.40;1.00;;;;;;6204242;23;20091;-88
2023/03/23 14:01:32;;;;;;;3.63;1.80;;;17.20;1.00;;;;;;6226581;23;20091;-90
2023/03/23 14:04:19;;;;;;;3.17;2.03;;;16.80;1.00;;;;;;6225438;23;20319;-88
2023/03/23 14:07:11;;;;;;;3.75;2.15;;;16.70;1.00;;;;;;6226026;23;20047;-89
2023/03/23 14:10:05;;;;;;;6.18;2.05;;;16.90;1.00;;;;;;6223734;23;20031;-87
2023/03/23 14:12:54;;;;;;;3.28;2.30;;;16.70;1.00;;;;;;6225251;23;20027;-85
2023/03/23 14:15:54;;;;;;;5.63;2.13;;;16.70;1.00;;;;;;6221269;23;20115;-86
2023/03/23 14:18:47;;;;;;;2.95;1.73;;;16.60;1.00;;;;;;6224855;23;20024;-86
2023/03/23 14:21:50;;;;;;;4.90;2.25;;;16.50;1.00;;;;;;6246059;23;20020;-85
2023/03/23 14:24:40;;;;;;;3.85;1.80;;;16.50;1.00;;;;;;6221756;23;20039;-87
2023/03/23 14:27:27;;;;;;;3.78;2.00;;;16.50;1.00;;;;;;6202552;23;20027;-87
2023/03/23 14:30:24;;;;;;;6.60;2.67;;;16.40;1.00;;;;;;6244648;23;20047;-85
2023/03/23 14:33:13;;;;;;;2.40;2.10;;;16.30;1.00;;;;;;6224081;23;20093;-88
2023/03/23 14:36:01;;;;;;;2.85;2.00;;;16.30;1.00;;;;;;6224079;23;20020;-87
2023/03/23 14:38:48;;;;;;;4.32;2.30;;;16.20;1.00;;;;;;6224219;23;20091;-87
2023/03/23 14:41:37;;;;;;;3.78;2.38;;;16.10;1.00;;;;;;6223065;23;20130;-86
2023/03/23 14:44:27;;;;;;;3.45;1.70;;;16.10;1.00;;;;;;6224126;23;20078;-86
2023/03/23 14:47:25;;;;;;;4.32;2.15;;;16.20;1.00;;;;;;6224826;23;20090;-85
2023/03/23 14:50:24;;;;;;;3.60;2.38;;;16.10;1.00;;;;;;6224327;23;20304;-86
2023/03/23 14:53:24;;;;;;;4.00;2.33;;;16.10;1.00;;;;;;6224985;23;20055;-86
2023/03/23 14:56:15;;;;;;;4.70;2.20;;;16.10;1.00;;;;;;6227917;23;20048;-86
2023/03/23 14:59:06;;;;;;;3.90;2.08;;;16.10;1.00;;;;;;6206338;23;20024;-87
2023/03/23 15:02:01;;;;;;;4.72;2.58;;;16.10;1.00;;;;;;6206071;23;20024;-85
2023/03/23 15:04:52;;;;;;;3.08;2.25;;;16.10;1.00;;;;;;6226943;23;20028;-88
2023/03/23 15:07:44;;;;;;;3.53;2.22;;;16.00;1.00;;;;;;6228105;23;20028;-89